sensor_id;sensor_type;location;lat;lon;timestamp;pressure;altitude;pressure_sealevel;temperature
6454;BMP180;3260;52.438;13.502;2022-09-14T04:01:37;100006.00;;;13.30
6454;BMP180;3260;52.438;13.502;2022-09-14T04:04:05;99998.00;;;13.10
6454;BMP180;3260;52.438;13.502;2022-09-14T04:06:33;99994.00;;;13.20
6454;BMP180;3260;52.438;13.502;2022-09-14T04:09:02;99999.00;;;13.20
6454;BMP180;3260;52.438;13.502;2022-09-14T04:11:30;99976.00;;;13.10
6454;BMP180;3260;52.438;13.502;2022-09-14T04:16:37;100002.00;;;13.20
6454;BMP180;3260;52.438;13.502;2022-09-14T04:19:06;100004.00;;;13.00
6454;BMP180;3260;52.438;13.502;2022-09-14T04:21:33;100014.00;;;13.20
6454;BMP180;3260;52.438;13.502;2022-09-14T04:24:02;100007.00;;;13.30
6454;BMP180;3260;52.438;13.502;2022-09-14T04:26:42;100002.00;;;13.60
6454;BMP180;3260;52.438;13.502;2022-09-14T04:29:11;99989.00;;;13.40
6454;BMP180;3260;52.438;13.502;2022-09-14T04:31:41;99996.00;;;13.20
6454;BMP180;3260;52.438;13.502;2022-09-14T04:34:11;99984.00;;;13.10
6454;BMP180;3260;52.438;13.502;2022-09-14T04:36:40;99982.00;;;13.00
6454;BMP180;3260;52.438;13.502;2022-09-14T04:39:11;99988.00;;;13.20
6454;BMP180;3260;52.438;13.502;2022-09-14T04:41:40;99997.00;;;13.00
6454;BMP180;3260;52.438;13.502;2022-09-14T04:44:08;99988.00;;;13.00
6454;BMP180;3260;52.438;13.502;2022-09-14T04:46:36;100001.00;;;13.10
6454;BMP180;3260;52.438;13.502;2022-09-14T04:49:14;99994.00;;;13.40
6454;BMP180;3260;52.438;13.502;2022-09-14T04:51:44;99986.00;;;13.40
6454;BMP180;3260;52.438;13.502;2022-09-14T04:54:15;99989.00;;;13.20
6454;BMP180;3260;52.438;13.502;2022-09-14T04:56:44;99989.00;;;13.20
6454;BMP180;3260;52.438;13.502;2022-09-14T04:59:13;99980.00;;;13.10
6454;BMP180;3260;52.438;13.502;2022-09-14T05:01:46;99980.00;;;13.00
6454;BMP180;3260;52.438;13.502;2022-09-14T05:04:16;99977.00;;;13.60
6454;BMP180;3260;52.438;13.502;2022-09-14T05:06:44;99982.00;;;13.90
6454;BMP180;3260;52.438;13.502;2022-09-14T05:09:16;99962.00;;;13.70
6454;BMP180;3260;52.438;13.502;2022-09-14T05:11:45;99971.00;;;13.50
6454;BMP180;3260;52.438;13.502;2022-09-14T05:14:15;99962.00;;;13.60
6454;BMP180;3260;52.438;13.502;2022-09-14T05:16:43;99968.00;;;13.70
6454;BMP180;3260;52.438;13.502;2022-09-14T05:19:16;99969.00;;;13.50
6454;BMP180;3260;52.438;13.502;2022-09-14T05:21:46;99964.00;;;13.80
6454;BMP180;3260;52.438;13.502;2022-09-14T05:24:15;99975.00;;;14.60
6454;BMP180;3260;52.438;13.502;2022-09-14T05:26:45;99981.00;;;14.10
6454;BMP180;3260;52.438;13.502;2022-09-14T05:29:16;99988.00;;;14.20
6454;BMP180;3260;52.438;13.502;2022-09-14T05:31:45;99969.00;;;13.80
6454;BMP180;3260;52.438;13.502;2022-09-14T05:34:13;99973.00;;;13.80
6454;BMP180;3260;52.438;13.502;2022-09-14T05:36:43;99968.00;;;14.20
6454;BMP180;3260;52.438;13.502;2022-09-14T05:39:11;99972.00;;;14.40
6454;BMP180;3260;52.438;13.502;2022-09-14T05:41:39;99987.00;;;14.20
6454;BMP180;3260;52.438;13.502;2022-09-14T05:44:07;99995.00;;;14.00
6454;BMP180;3260;52.438;13.502;2022-09-14T05:46:35;99985.00;;;13.90
6454;BMP180;3260;52.438;13.502;2022-09-14T05:49:04;99982.00;;;14.10
6454;BMP180;3260;52.438;13.502;2022-09-14T05:51:32;99977.00;;;14.00
6454;BMP180;3260;52.438;13.502;2022-09-14T05:54:01;99985.00;;;14.10
6454;BMP180;3260;52.438;13.502;2022-09-14T05:56:35;99974.00;;;14.00
6454;BMP180;3260;52.438;13.502;2022-09-14T05:59:03;99980.00;;;14.30
6454;BMP180;3260;52.438;13.502;2022-09-14T06:01:31;99977.00;;;14.10
6454;BMP180;3260;52.438;13.502;2022-09-14T06:04:01;99973.00;;;14.30
6454;BMP180;3260;52.438;13.502;2022-09-14T06:06:31;99968.00;;;14.60
6454;BMP180;3260;52.438;13.502;2022-09-14T06:09:02;99962.00;;;14.70
6454;BMP180;3260;52.438;13.502;2022-09-14T06:11:33;99968.00;;;14.80
6454;BMP180;3260;52.438;13.502;2022-09-14T06:14:03;99948.00;;;14.70
6454;BMP180;3260;52.438;13.502;2022-09-14T06:16:31;99954.00;;;15.00
6454;BMP180;3260;52.438;13.502;2022-09-14T06:18:59;99949.00;;;15.00
6454;BMP180;3260;52.438;13.502;2022-09-14T06:21:31;99961.00;;;15.20
6454;BMP180;3260;52.438;13.502;2022-09-14T06:24:02;99950.00;;;15.10
6454;BMP180;3260;52.438;13.502;2022-09-14T06:26:30;99956.00;;;15.20
6454;BMP180;3260;52.438;13.502;2022-09-14T06:28:58;99950.00;;;15.30
6454;BMP180;3260;52.438;13.502;2022-09-14T06:31:26;99948.00;;;15.70
6454;BMP180;3260;52.438;13.502;2022-09-14T06:33:54;99954.00;;;15.60
6454;BMP180;3260;52.438;13.502;2022-09-14T06:36:25;99954.00;;;16.10
6454;BMP180;3260;52.438;13.502;2022-09-14T06:38:54;99929.00;;;15.60
6454;BMP180;3260;52.438;13.502;2022-09-14T06:41:26;99942.00;;;15.50
6454;BMP180;3260;52.438;13.502;2022-09-14T06:43:57;99953.00;;;16.10
6454;BMP180;3260;52.438;13.502;2022-09-14T06:46:29;99955.00;;;15.60
6454;BMP180;3260;52.438;13.502;2022-09-14T06:49:02;99956.00;;;15.90
6454;BMP180;3260;52.438;13.502;2022-09-14T06:51:34;99958.00;;;15.80
6454;BMP180;3260;52.438;13.502;2022-09-14T06:54:03;99954.00;;;16.20
6454;BMP180;3260;52.438;13.502;2022-09-14T06:56:35;99950.00;;;16.70
6454;BMP180;3260;52.438;13.502;2022-09-14T06:59:05;99950.00;;;16.30
6454;BMP180;3260;52.438;13.502;2022-09-14T07:01:33;99958.00;;;16.20
6454;BMP180;3260;52.438;13.502;2022-09-14T07:04:02;99956.00;;;16.50
6454;BMP180;3260;52.438;13.502;2022-09-14T07:06:38;99957.00;;;17.10
6454;BMP180;3260;52.438;13.502;2022-09-14T07:09:06;99962.00;;;17.30
6454;BMP180;3260;52.438;13.502;2022-09-14T07:11:36;99961.00;;;17.50
6454;BMP180;3260;52.438;13.502;2022-09-14T07:14:06;99955.00;;;17.50
6454;BMP180;3260;52.438;13.502;2022-09-14T07:16:36;99962.00;;;17.00
6454;BMP180;3260;52.438;13.502;2022-09-14T07:19:07;99965.00;;;17.60
6454;BMP180;3260;52.438;13.502;2022-09-14T07:21:36;99948.00;;;17.80
6454;BMP180;3260;52.438;13.502;2022-09-14T07:24:04;99958.00;;;18.60
6454;BMP180;3260;52.438;13.502;2022-09-14T07:26:37;99959.00;;;18.20
6454;BMP180;3260;52.438;13.502;2022-09-14T07:29:10;99964.00;;;18.10
6454;BMP180;3260;52.438;13.502;2022-09-14T07:31:41;99952.00;;;18.60
6454;BMP180;3260;52.438;13.502;2022-09-14T07:34:10;99955.00;;;18.00
6454;BMP180;3260;52.438;13.502;2022-09-14T07:36:40;99955.00;;;18.40
6454;BMP180;3260;52.438;13.502;2022-09-14T07:39:12;99955.00;;;18.90
6454;BMP180;3260;52.438;13.502;2022-09-14T07:41:42;99951.00;;;18.70
6454;BMP180;3260;52.438;13.502;2022-09-14T07:44:15;99948.00;;;18.50
6454;BMP180;3260;52.438;13.502;2022-09-14T07:46:45;99942.00;;;18.40
6454;BMP180;3260;52.438;13.502;2022-09-14T07:49:15;99956.00;;;18.40
6454;BMP180;3260;52.438;13.502;2022-09-14T07:51:44;99956.00;;;18.90
6454;BMP180;3260;52.438;13.502;2022-09-14T07:54:14;99952.00;;;19.00
6454;BMP180;3260;52.438;13.502;2022-09-14T07:56:44;99959.00;;;20.20
6454;BMP180;3260;52.438;13.502;2022-09-14T07:59:14;99966.00;;;19.60
6454;BMP180;3260;52.438;13.502;2022-09-14T08:02:04;99962.00;;;19.70
6454;BMP180;3260;52.438;13.502;2022-09-14T08:04:34;99950.00;;;20.00
6454;BMP180;3260;52.438;13.502;2022-09-14T08:07:02;99959.00;;;20.00
6454;BMP180;3260;52.438;13.502;2022-09-14T08:09:30;99963.00;;;19.80
6454;BMP180;3260;52.438;13.502;2022-09-14T08:12:01;99964.00;;;19.90
6454;BMP180;3260;52.438;13.502;2022-09-14T08:14:31;99962.00;;;19.70
6454;BMP180;3260;52.438;13.502;2022-09-14T08:16:59;99960.00;;;20.20
6454;BMP180;3260;52.438;13.502;2022-09-14T08:19:27;99967.00;;;20.00
6454;BMP180;3260;52.438;13.502;2022-09-14T08:21:55;99961.00;;;20.80
6454;BMP180;3260;52.438;13.502;2022-09-14T08:24:23;99954.00;;;20.90
6454;BMP180;3260;52.438;13.502;2022-09-14T08:26:51;99960.00;;;21.00
6454;BMP180;3260;52.438;13.502;2022-09-14T08:29:22;99961.00;;;21.10
6454;BMP180;3260;52.438;13.502;2022-09-14T08:31:50;99964.00;;;20.90
6454;BMP180;3260;52.438;13.502;2022-09-14T08:34:19;99963.00;;;20.70
6454;BMP180;3260;52.438;13.502;2022-09-14T08:36:48;99946.00;;;20.60
6454;BMP180;3260;52.438;13.502;2022-09-14T08:39:16;99953.00;;;21.50
6454;BMP180;3260;52.438;13.502;2022-09-14T08:41:52;99957.00;;;21.70
6454;BMP180;3260;52.438;13.502;2022-09-14T08:44:27;99952.00;;;21.90
6454;BMP180;3260;52.438;13.502;2022-09-14T08:47:00;99956.00;;;22.20
6454;BMP180;3260;52.438;13.502;2022-09-14T08:49:45;99948.00;;;21.60
6454;BMP180;3260;52.438;13.502;2022-09-14T08:52:23;99955.00;;;21.70
6454;BMP180;3260;52.438;13.502;2022-09-14T08:54:55;99955.00;;;21.90
6454;BMP180;3260;52.438;13.502;2022-09-14T08:57:32;99959.00;;;21.80
6454;BMP180;3260;52.438;13.502;2022-09-14T09:00:12;99952.00;;;22.60
6454;BMP180;3260;52.438;13.502;2022-09-14T09:03:20;99961.00;;;23.20
6454;BMP180;3260;52.438;13.502;2022-09-14T09:05:57;99951.00;;;23.60
6454;BMP180;3260;52.438;13.502;2022-09-14T09:08:38;99942.00;;;23.80
6454;BMP180;3260;52.438;13.502;2022-09-14T09:11:14;99942.00;;;22.40
6454;BMP180;3260;52.438;13.502;2022-09-14T09:13:47;99939.00;;;21.50
6454;BMP180;3260;52.438;13.502;2022-09-14T09:16:23;99942.00;;;22.50
6454;BMP180;3260;52.438;13.502;2022-09-14T09:18:57;99946.00;;;22.40
6454;BMP180;3260;52.438;13.502;2022-09-14T09:21:30;99945.00;;;21.70
6454;BMP180;3260;52.438;13.502;2022-09-14T09:24:13;99953.00;;;22.70
6454;BMP180;3260;52.438;13.502;2022-09-14T09:26:43;99946.00;;;22.60
6454;BMP180;3260;52.438;13.502;2022-09-14T09:29:11;99941.00;;;22.00
6454;BMP180;3260;52.438;13.502;2022-09-14T09:31:45;99934.00;;;22.60
6454;BMP180;3260;52.438;13.502;2022-09-14T09:34:22;99943.00;;;22.80
6454;BMP180;3260;52.438;13.502;2022-09-14T09:36:51;99942.00;;;23.00
6454;BMP180;3260;52.438;13.502;2022-09-14T09:39:23;99936.00;;;23.30
6454;BMP180;3260;52.438;13.502;2022-09-14T09:41:59;99935.00;;;23.20
6454;BMP180;3260;52.438;13.502;2022-09-14T09:44:28;99947.00;;;22.70
6454;BMP180;3260;52.438;13.502;2022-09-14T09:46:59;99928.00;;;22.20
6454;BMP180;3260;52.438;13.502;2022-09-14T09:49:31;99930.00;;;21.80
6454;BMP180;3260;52.438;13.502;2022-09-14T09:52:08;99928.00;;;21.80
6454;BMP180;3260;52.438;13.502;2022-09-14T09:54:39;99932.00;;;21.60
6454;BMP180;3260;52.438;13.502;2022-09-14T09:57:22;99925.00;;;21.80
6454;BMP180;3260;52.438;13.502;2022-09-14T09:59:50;99928.00;;;21.30
6454;BMP180;3260;52.438;13.502;2022-09-14T10:02:29;99921.00;;;21.40
6454;BMP180;3260;52.438;13.502;2022-09-14T10:05:02;99923.00;;;20.90
6454;BMP180;3260;52.438;13.502;2022-09-14T10:07:35;99911.00;;;21.10
6454;BMP180;3260;52.438;13.502;2022-09-14T10:10:08;99927.00;;;21.10
6454;BMP180;3260;52.438;13.502;2022-09-14T10:12:46;99919.00;;;21.50
6454;BMP180;3260;52.438;13.502;2022-09-14T10:15:18;99924.00;;;20.90
6454;BMP180;3260;52.438;13.502;2022-09-14T10:18:16;99921.00;;;21.90
6454;BMP180;3260;52.438;13.502;2022-09-14T10:21:06;99925.00;;;22.40
6454;BMP180;3260;52.438;13.502;2022-09-14T10:23:36;99912.00;;;22.60
6454;BMP180;3260;52.438;13.502;2022-09-14T10:26:23;99899.00;;;23.00
6454;BMP180;3260;52.438;13.502;2022-09-14T10:28:52;99909.00;;;22.10
6454;BMP180;3260;52.438;13.502;2022-09-14T10:31:27;99911.00;;;21.90
6454;BMP180;3260;52.438;13.502;2022-09-14T10:33:59;99913.00;;;22.30
6454;BMP180;3260;52.438;13.502;2022-09-14T10:36:29;99909.00;;;22.80
6454;BMP180;3260;52.438;13.502;2022-09-14T10:39:09;99900.00;;;22.60
6454;BMP180;3260;52.438;13.502;2022-09-14T10:41:54;99910.00;;;22.60
6454;BMP180;3260;52.438;13.502;2022-09-14T10:44:44;99894.00;;;23.20
6454;BMP180;3260;52.438;13.502;2022-09-14T10:50:46;99894.00;;;23.50
6454;BMP180;3260;52.438;13.502;2022-09-14T10:53:44;99900.00;;;22.60
6454;BMP180;3260;52.438;13.502;2022-09-14T10:56:19;99893.00;;;22.20
6454;BMP180;3260;52.438;13.502;2022-09-14T10:59:26;99892.00;;;22.40
6454;BMP180;3260;52.438;13.502;2022-09-14T11:02:35;99897.00;;;23.60
6454;BMP180;3260;52.438;13.502;2022-09-14T11:05:19;99901.00;;;24.40
6454;BMP180;3260;52.438;13.502;2022-09-14T11:08:14;99900.00;;;24.90
6454;BMP180;3260;52.438;13.502;2022-09-14T11:11:13;99905.00;;;24.90
6454;BMP180;3260;52.438;13.502;2022-09-14T11:14:05;99900.00;;;24.80
6454;BMP180;3260;52.438;13.502;2022-09-14T11:16:58;99914.00;;;24.30
6454;BMP180;3260;52.438;13.502;2022-09-14T11:19:40;99911.00;;;23.50
6454;BMP180;3260;52.438;13.502;2022-09-14T11:22:21;99909.00;;;23.10
6454;BMP180;3260;52.438;13.502;2022-09-14T11:24:58;99898.00;;;22.90
6454;BMP180;3260;52.438;13.502;2022-09-14T11:27:33;99896.00;;;23.80
6454;BMP180;3260;52.438;13.502;2022-09-14T11:30:10;99893.00;;;23.40
6454;BMP180;3260;52.438;13.502;2022-09-14T11:32:46;99896.00;;;23.00
6454;BMP180;3260;52.438;13.502;2022-09-14T11:35:21;99886.00;;;23.10
6454;BMP180;3260;52.438;13.502;2022-09-14T11:37:57;99916.00;;;23.70
6454;BMP180;3260;52.438;13.502;2022-09-14T11:40:33;99905.00;;;23.40
6454;BMP180;3260;52.438;13.502;2022-09-14T11:43:12;99907.00;;;24.60
6454;BMP180;3260;52.438;13.502;2022-09-14T11:45:47;99899.00;;;24.10
6454;BMP180;3260;52.438;13.502;2022-09-14T11:48:23;99905.00;;;23.50
6454;BMP180;3260;52.438;13.502;2022-09-14T11:51:14;99895.00;;;25.20
6454;BMP180;3260;52.438;13.502;2022-09-14T11:53:44;99881.00;;;28.60
6454;BMP180;3260;52.438;13.502;2022-09-14T11:56:24;99886.00;;;29.10
6454;BMP180;3260;52.438;13.502;2022-09-14T11:58:55;99888.00;;;29.60
6454;BMP180;3260;52.438;13.502;2022-09-14T12:01:32;99884.00;;;29.30
6454;BMP180;3260;52.438;13.502;2022-09-14T12:04:19;99879.00;;;28.60
6454;BMP180;3260;52.438;13.502;2022-09-14T12:06:55;99879.00;;;27.50
6454;BMP180;3260;52.438;13.502;2022-09-14T12:10:16;99875.00;;;24.90
6454;BMP180;3260;52.438;13.502;2022-09-14T12:12:49;99885.00;;;24.70
6454;BMP180;3260;52.438;13.502;2022-09-14T12:15:32;99891.00;;;24.80
6454;BMP180;3260;52.438;13.502;2022-09-14T12:18:21;99882.00;;;24.60
6454;BMP180;3260;52.438;13.502;2022-09-14T12:21:01;99889.00;;;24.10
6454;BMP180;3260;52.438;13.502;2022-09-14T12:23:46;99889.00;;;23.10
6454;BMP180;3260;52.438;13.502;2022-09-14T12:26:31;99894.00;;;23.00
6454;BMP180;3260;52.438;13.502;2022-09-14T12:29:27;99879.00;;;23.20
6454;BMP180;3260;52.438;13.502;2022-09-14T12:32:26;99872.00;;;22.40
6454;BMP180;3260;52.438;13.502;2022-09-14T12:35:42;99879.00;;;21.80
6454;BMP180;3260;52.438;13.502;2022-09-14T12:38:42;99871.00;;;21.90
6454;BMP180;3260;52.438;13.502;2022-09-14T12:42:03;99886.00;;;21.70
6454;BMP180;3260;52.438;13.502;2022-09-14T12:44:38;99868.00;;;21.70
6454;BMP180;3260;52.438;13.502;2022-09-14T12:50:29;99861.00;;;22.90
6454;BMP180;3260;52.438;13.502;2022-09-14T12:53:24;99861.00;;;22.90
6454;BMP180;3260;52.438;13.502;2022-09-14T12:56:01;99865.00;;;24.30
6454;BMP180;3260;52.438;13.502;2022-09-14T12:58:54;99856.00;;;27.30
6454;BMP180;3260;52.438;13.502;2022-09-14T13:01:35;99850.00;;;27.80
6454;BMP180;3260;52.438;13.502;2022-09-14T13:04:13;99854.00;;;27.70
6454;BMP180;3260;52.438;13.502;2022-09-14T13:06:45;99855.00;;;28.90
6454;BMP180;3260;52.438;13.502;2022-09-14T13:09:20;99844.00;;;27.80
6454;BMP180;3260;52.438;13.502;2022-09-14T13:11:54;99840.00;;;27.90
6454;BMP180;3260;52.438;13.502;2022-09-14T13:14:26;99838.00;;;26.30
6454;BMP180;3260;52.438;13.502;2022-09-14T13:16:59;99837.00;;;25.90
6454;BMP180;3260;52.438;13.502;2022-09-14T13:19:31;99801.00;;;26.10
6454;BMP180;3260;52.438;13.502;2022-09-14T13:22:01;99811.00;;;25.50
6454;BMP180;3260;52.438;13.502;2022-09-14T13:24:36;99813.00;;;25.20
6454;BMP180;3260;52.438;13.502;2022-09-14T13:27:20;99801.00;;;24.20
6454;BMP180;3260;52.438;13.502;2022-09-14T13:29:59;99818.00;;;24.20
6454;BMP180;3260;52.438;13.502;2022-09-14T13:32:30;99807.00;;;24.80
6454;BMP180;3260;52.438;13.502;2022-09-14T13:35:02;99800.00;;;24.40
6454;BMP180;3260;52.438;13.502;2022-09-14T13:37:31;99819.00;;;23.90
6454;BMP180;3260;52.438;13.502;2022-09-14T13:40:00;99812.00;;;22.40
6454;BMP180;3260;52.438;13.502;2022-09-14T13:42:29;99808.00;;;22.70
6454;BMP180;3260;52.438;13.502;2022-09-14T13:44:57;99807.00;;;22.10
6454;BMP180;3260;52.438;13.502;2022-09-14T13:47:26;99801.00;;;22.20
6454;BMP180;3260;52.438;13.502;2022-09-14T13:49:55;99800.00;;;22.20
6454;BMP180;3260;52.438;13.502;2022-09-14T13:52:33;99800.00;;;22.00
6454;BMP180;3260;52.438;13.502;2022-09-14T13:55:26;99798.00;;;22.40
6454;BMP180;3260;52.438;13.502;2022-09-14T13:58:19;99799.00;;;22.90
6454;BMP180;3260;52.438;13.502;2022-09-14T14:00:53;99802.00;;;22.80
6454;BMP180;3260;52.438;13.502;2022-09-14T14:03:30;99800.00;;;22.00
6454;BMP180;3260;52.438;13.502;2022-09-14T14:06:16;99785.00;;;21.50
6454;BMP180;3260;52.438;13.502;2022-09-14T14:08:55;99786.00;;;21.30
6454;BMP180;3260;52.438;13.502;2022-09-14T14:11:34;99788.00;;;21.40
6454;BMP180;3260;52.438;13.502;2022-09-14T14:14:19;99789.00;;;21.30
6454;BMP180;3260;52.438;13.502;2022-09-14T14:17:21;99775.00;;;21.40
6454;BMP180;3260;52.438;13.502;2022-09-14T14:19:51;99769.00;;;21.90
6454;BMP180;3260;52.438;13.502;2022-09-14T14:22:26;99775.00;;;21.60
6454;BMP180;3260;52.438;13.502;2022-09-14T14:24:55;99768.00;;;21.80
6454;BMP180;3260;52.438;13.502;2022-09-14T14:27:43;99754.00;;;20.80
6454;BMP180;3260;52.438;13.502;2022-09-14T14:30:15;99768.00;;;21.00
6454;BMP180;3260;52.438;13.502;2022-09-14T14:32:49;99767.00;;;20.80
6454;BMP180;3260;52.438;13.502;2022-09-14T14:35:20;99766.00;;;20.80
6454;BMP180;3260;52.438;13.502;2022-09-14T14:37:50;99763.00;;;20.70
6454;BMP180;3260;52.438;13.502;2022-09-14T14:40:19;99764.00;;;20.20
6454;BMP180;3260;52.438;13.502;2022-09-14T14:42:48;99754.00;;;20.10
6454;BMP180;3260;52.438;13.502;2022-09-14T14:45:21;99764.00;;;20.10
6454;BMP180;3260;52.438;13.502;2022-09-14T14:47:53;99749.00;;;20.10
6454;BMP180;3260;52.438;13.502;2022-09-14T14:50:25;99763.00;;;20.10
6454;BMP180;3260;52.438;13.502;2022-09-14T14:52:55;99763.00;;;20.20
6454;BMP180;3260;52.438;13.502;2022-09-14T14:55:24;99770.00;;;20.90
6454;BMP180;3260;52.438;13.502;2022-09-14T14:57:57;99750.00;;;20.60
6454;BMP180;3260;52.438;13.502;2022-09-14T15:00:30;99762.00;;;20.60
6454;BMP180;3260;52.438;13.502;2022-09-14T15:02:59;99765.00;;;20.50
6454;BMP180;3260;52.438;13.502;2022-09-14T15:05:27;99763.00;;;20.60
6454;BMP180;3260;52.438;13.502;2022-09-14T15:07:58;99754.00;;;20.00
6454;BMP180;3260;52.438;13.502;2022-09-14T15:10:27;99742.00;;;20.10
6454;BMP180;3260;52.438;13.502;2022-09-14T15:12:56;99744.00;;;20.10
6454;BMP180;3260;52.438;13.502;2022-09-14T15:15:25;99745.00;;;20.60
6454;BMP180;3260;52.438;13.502;2022-09-14T15:17:53;99746.00;;;20.20
6454;BMP180;3260;52.438;13.502;2022-09-14T15:20:21;99741.00;;;19.80
6454;BMP180;3260;52.438;13.502;2022-09-14T15:22:50;99729.00;;;20.50
6454;BMP180;3260;52.438;13.502;2022-09-14T15:25:20;99737.00;;;20.50
6454;BMP180;3260;52.438;13.502;2022-09-14T15:27:49;99743.00;;;20.40
6454;BMP180;3260;52.438;13.502;2022-09-14T15:30:17;99742.00;;;20.60
6454;BMP180;3260;52.438;13.502;2022-09-14T15:32:45;99735.00;;;20.30
6454;BMP180;3260;52.438;13.502;2022-09-14T15:35:14;99745.00;;;20.40
6454;BMP180;3260;52.438;13.502;2022-09-14T15:37:42;99738.00;;;20.20
6454;BMP180;3260;52.438;13.502;2022-09-14T15:40:10;99738.00;;;19.50
6454;BMP180;3260;52.438;13.502;2022-09-14T15:42:40;99737.00;;;19.80
6454;BMP180;3260;52.438;13.502;2022-09-14T15:45:09;99731.00;;;19.90
6454;BMP180;3260;52.438;13.502;2022-09-14T15:47:41;99736.00;;;20.30
6454;BMP180;3260;52.438;13.502;2022-09-14T15:50:09;99730.00;;;20.30
6454;BMP180;3260;52.438;13.502;2022-09-14T15:52:39;99735.00;;;20.40
6454;BMP180;3260;52.438;13.502;2022-09-14T15:55:10;99731.00;;;20.10
6454;BMP180;3260;52.438;13.502;2022-09-14T15:57:40;99734.00;;;20.50
6454;BMP180;3260;52.438;13.502;2022-09-14T16:00:10;99734.00;;;20.30
6454;BMP180;3260;52.438;13.502;2022-09-14T16:02:39;99728.00;;;20.00
6454;BMP180;3260;52.438;13.502;2022-09-14T16:05:08;99735.00;;;20.20
6454;BMP180;3260;52.438;13.502;2022-09-14T16:07:38;99737.00;;;20.50
6454;BMP180;3260;52.438;13.502;2022-09-14T16:10:08;99733.00;;;20.40
6454;BMP180;3260;52.438;13.502;2022-09-14T16:12:36;99738.00;;;20.00
6454;BMP180;3260;52.438;13.502;2022-09-14T16:15:07;99741.00;;;20.00
6454;BMP180;3260;52.438;13.502;2022-09-14T16:17:36;99744.00;;;19.60
6454;BMP180;3260;52.438;13.502;2022-09-14T16:20:05;99740.00;;;19.90
6454;BMP180;3260;52.438;13.502;2022-09-14T16:22:34;99747.00;;;19.80
6454;BMP180;3260;52.438;13.502;2022-09-14T16:25:02;99735.00;;;20.20
6454;BMP180;3260;52.438;13.502;2022-09-14T16:27:30;99726.00;;;20.20
6454;BMP180;3260;52.438;13.502;2022-09-14T16:29:58;99732.00;;;20.40
6454;BMP180;3260;52.438;13.502;2022-09-14T16:32:28;99727.00;;;20.60
6454;BMP180;3260;52.438;13.502;2022-09-14T16:34:56;99724.00;;;20.40
6454;BMP180;3260;52.438;13.502;2022-09-14T16:37:24;99733.00;;;19.90
6454;BMP180;3260;52.438;13.502;2022-09-14T16:39:52;99729.00;;;19.90
6454;BMP180;3260;52.438;13.502;2022-09-14T16:42:20;99726.00;;;19.20
6454;BMP180;3260;52.438;13.502;2022-09-14T16:44:48;99740.00;;;19.30
6454;BMP180;3260;52.438;13.502;2022-09-14T16:47:16;99736.00;;;19.00
6454;BMP180;3260;52.438;13.502;2022-09-14T16:49:45;99730.00;;;19.20
6454;BMP180;3260;52.438;13.502;2022-09-14T16:52:13;99735.00;;;18.70
6454;BMP180;3260;52.438;13.502;2022-09-14T16:54:41;99739.00;;;19.10
6454;BMP180;3260;52.438;13.502;2022-09-14T16:57:09;99734.00;;;18.50
6454;BMP180;3260;52.438;13.502;2022-09-14T16:59:37;99738.00;;;18.70
6454;BMP180;3260;52.438;13.502;2022-09-14T17:02:08;99731.00;;;18.40
6454;BMP180;3260;52.438;13.502;2022-09-14T17:04:36;99731.00;;;18.80
6454;BMP180;3260;52.438;13.502;2022-09-14T17:07:07;99724.00;;;18.20
6454;BMP180;3260;52.438;13.502;2022-09-14T17:09:36;99727.00;;;18.00
6454;BMP180;3260;52.438;13.502;2022-09-14T17:12:04;99728.00;;;18.00
6454;BMP180;3260;52.438;13.502;2022-09-14T17:14:33;99720.00;;;18.30
6454;BMP180;3260;52.438;13.502;2022-09-14T17:17:01;99713.00;;;18.40
6454;BMP180;3260;52.438;13.502;2022-09-14T17:19:29;99703.00;;;18.40
6454;BMP180;3260;52.438;13.502;2022-09-14T17:21:57;99720.00;;;18.90
6454;BMP180;3260;52.438;13.502;2022-09-14T17:24:26;99715.00;;;19.10
6454;BMP180;3260;52.438;13.502;2022-09-14T17:26:54;99718.00;;;18.30
6454;BMP180;3260;52.438;13.502;2022-09-14T17:29:23;99716.00;;;18.90
6454;BMP180;3260;52.438;13.502;2022-09-14T17:31:51;99709.00;;;18.70
6454;BMP180;3260;52.438;13.502;2022-09-14T17:34:21;99706.00;;;18.30
6454;BMP180;3260;52.438;13.502;2022-09-14T17:36:49;99699.00;;;18.20
6454;BMP180;3260;52.438;13.502;2022-09-14T17:39:17;99709.00;;;17.90
6454;BMP180;3260;52.438;13.502;2022-09-14T17:41:46;99702.00;;;18.00
6454;BMP180;3260;52.438;13.502;2022-09-14T17:44:14;99704.00;;;17.80
6454;BMP180;3260;52.438;13.502;2022-09-14T17:46:43;99708.00;;;17.70
6454;BMP180;3260;52.438;13.502;2022-09-14T17:49:20;99705.00;;;18.10
6454;BMP180;3260;52.438;13.502;2022-09-14T17:51:49;99704.00;;;18.00
6454;BMP180;3260;52.438;13.502;2022-09-14T17:54:18;99715.00;;;17.70
6454;BMP180;3260;52.438;13.502;2022-09-14T17:56:48;99710.00;;;18.00
6454;BMP180;3260;52.438;13.502;2022-09-14T17:59:19;99709.00;;;17.60
6454;BMP180;3260;52.438;13.502;2022-09-14T18:01:47;99702.00;;;17.70
6454;BMP180;3260;52.438;13.502;2022-09-14T18:04:16;99704.00;;;17.80
6454;BMP180;3260;52.438;13.502;2022-09-14T18:06:46;99689.00;;;18.00
6454;BMP180;3260;52.438;13.502;2022-09-14T18:09:19;99691.00;;;17.80
6454;BMP180;3260;52.438;13.502;2022-09-14T18:11:49;99689.00;;;17.60
6454;BMP180;3260;52.438;13.502;2022-09-14T18:14:17;99686.00;;;17.90
6454;BMP180;3260;52.438;13.502;2022-09-14T18:16:45;99687.00;;;18.20
6454;BMP180;3260;52.438;13.502;2022-09-14T18:19:15;99677.00;;;18.10
6454;BMP180;3260;52.438;13.502;2022-09-14T18:21:43;99682.00;;;18.10
6454;BMP180;3260;52.438;13.502;2022-09-14T18:24:18;99682.00;;;18.60
6454;BMP180;3260;52.438;13.502;2022-09-14T18:26:48;99679.00;;;18.10
6454;BMP180;3260;52.438;13.502;2022-09-14T18:29:18;99682.00;;;18.20
6454;BMP180;3260;52.438;13.502;2022-09-14T18:31:49;99687.00;;;17.90
6454;BMP180;3260;52.438;13.502;2022-09-14T18:34:19;99679.00;;;17.80
6454;BMP180;3260;52.438;13.502;2022-09-14T18:36:50;99670.00;;;18.00
6454;BMP180;3260;52.438;13.502;2022-09-14T18:39:18;99670.00;;;17.70
6454;BMP180;3260;52.438;13.502;2022-09-14T18:41:50;99670.00;;;18.10
6454;BMP180;3260;52.438;13.502;2022-09-14T18:44:19;99676.00;;;17.70
6454;BMP180;3260;52.438;13.502;2022-09-14T18:46:48;99672.00;;;17.80
6454;BMP180;3260;52.438;13.502;2022-09-14T18:49:18;99681.00;;;17.80
6454;BMP180;3260;52.438;13.502;2022-09-14T18:51:46;99681.00;;;17.80
6454;BMP180;3260;52.438;13.502;2022-09-14T18:54:15;99685.00;;;17.30
6454;BMP180;3260;52.438;13.502;2022-09-14T18:56:44;99683.00;;;17.60
6454;BMP180;3260;52.438;13.502;2022-09-14T18:59:14;99692.00;;;17.50
6454;BMP180;3260;52.438;13.502;2022-09-14T19:01:42;99678.00;;;17.80
6454;BMP180;3260;52.438;13.502;2022-09-14T19:04:11;99669.00;;;17.70
6454;BMP180;3260;52.438;13.502;2022-09-14T19:06:41;99670.00;;;17.30